sensor_id;sensor_type;location;lat;lon;timestamp;temperature;humidity
57088;DHT22;42965;52.846;6.614;2023-01-08T00:01:11;10.20;99.90
57088;DHT22;42965;52.846;6.614;2023-01-08T00:03:39;10.20;99.90
57088;DHT22;42965;52.846;6.614;2023-01-08T00:06:12;10.20;99.90
57088;DHT22;42965;52.846;6.614;2023-01-08T00:08:40;10.20;99.90
57088;DHT22;42965;52.846;6.614;2023-01-08T00:11:07;10.20;99.90
57088;DHT22;42965;52.846;6.614;2023-01-08T00:13:34;10.20;99.90
57088;DHT22;42965;52.846;6.614;2023-01-08T00:16:19;10.20;99.90
57088;DHT22;42965;52.846;6.614;2023-01-08T00:18:46;10.20;99.90
57088;DHT22;42965;52.846;6.614;2023-01-08T00:21:13;10.20;99.90
57088;DHT22;42965;52.846;6.614;2023-01-08T00:23:39;10.20;99.90
57088;DHT22;42965;52.846;6.614;2023-01-08T00:26:08;10.10;99.90
57088;DHT22;42965;52.846;6.614;2023-01-08T00:28:35;10.20;99.90
57088;DHT22;42965;52.846;6.614;2023-01-08T00:31:10;10.20;99.90
57088;DHT22;42965;52.846;6.614;2023-01-08T00:33:38;10.20;99.90
57088;DHT22;42965;52.846;6.614;2023-01-08T00:36:10;10.20;99.90
57088;DHT22;42965;52.846;6.614;2023-01-08T00:38:36;10.20;99.90
57088;DHT22;42965;52.846;6.614;2023-01-08T00:41:05;10.20;99.90
57088;DHT22;42965;52.846;6.614;2023-01-08T00:43:31;10.20;99.90
57088;DHT22;42965;52.846;6.614;2023-01-08T00:46:01;10.20;99.90
57088;DHT22;42965;52.846;6.614;2023-01-08T00:48:28;10.20;99.90
57088;DHT22;42965;52.846;6.614;2023-01-08T00:50:54;10.20;99.90
57088;DHT22;42965;52.846;6.614;2023-01-08T00:53:21;10.20;99.90
57088;DHT22;42965;52.846;6.614;2023-01-08T00:55:47;10.30;99.90
57088;DHT22;42965;52.846;6.614;2023-01-08T00:58:14;10.30;99.90
57088;DHT22;42965;52.846;6.614;2023-01-08T01:00:41;10.30;99.90
57088;DHT22;42965;52.846;6.614;2023-01-08T01:03:07;10.30;99.90
57088;DHT22;42965;52.846;6.614;2023-01-08T01:05:33;10.20;99.90
57088;DHT22;42965;52.846;6.614;2023-01-08T01:08:00;10.30;99.90
57088;DHT22;42965;52.846;6.614;2023-01-08T01:10:26;10.20;99.90
57088;DHT22;42965;52.846;6.614;2023-01-08T01:12:52;10.20;99.90
57088;DHT22;42965;52.846;6.614;2023-01-08T01:15:18;10.20;99.90
57088;DHT22;42965;52.846;6.614;2023-01-08T01:17:47;10.20;99.90
57088;DHT22;42965;52.846;6.614;2023-01-08T01:20:14;10.20;99.90
57088;DHT22;42965;52.846;6.614;2023-01-08T01:22:41;10.20;99.90
57088;DHT22;42965;52.846;6.614;2023-01-08T01:25:09;10.10;99.90
57088;DHT22;42965;52.846;6.614;2023-01-08T01:27:56;10.10;99.90
57088;DHT22;42965;52.846;6.614;2023-01-08T01:30:23;10.00;99.90
57088;DHT22;42965;52.846;6.614;2023-01-08T01:32:49;9.90;99.90
57088;DHT22;42965;52.846;6.614;2023-01-08T01:35:15;9.80;99.90
57088;DHT22;42965;52.846;6.614;2023-01-08T01:37:44;9.70;99.90
57088;DHT22;42965;52.846;6.614;2023-01-08T01:40:11;9.60;99.90
57088;DHT22;42965;52.846;6.614;2023-01-08T01:42:37;9.40;99.90
57088;DHT22;42965;52.846;6.614;2023-01-08T01:45:22;9.40;99.90
57088;DHT22;42965;52.846;6.614;2023-01-08T01:48:02;9.30;99.90
57088;DHT22;42965;52.846;6.614;2023-01-08T01:53:07;9.10;99.90
57088;DHT22;42965;52.846;6.614;2023-01-08T01:55:38;9.10;99.90
57088;DHT22;42965;52.846;6.614;2023-01-08T01:58:23;9.10;99.90
57088;DHT22;42965;52.846;6.614;2023-01-08T02:00:55;9.10;99.90
57088;DHT22;42965;52.846;6.614;2023-01-08T02:03:24;9.00;99.90
57088;DHT22;42965;52.846;6.614;2023-01-08T02:09:17;8.90;99.90
57088;DHT22;42965;52.846;6.614;2023-01-08T02:12:07;8.90;99.90
57088;DHT22;42965;52.846;6.614;2023-01-08T02:20:32;8.80;99.90
57088;DHT22;42965;52.846;6.614;2023-01-08T02:28:25;8.80;99.90
57088;DHT22;42965;52.846;6.614;2023-01-08T02:30:53;8.80;99.90
57088;DHT22;42965;52.846;6.614;2023-01-08T02:33:22;8.80;99.90
57088;DHT22;42965;52.846;6.614;2023-01-08T02:35:54;8.80;99.90
57088;DHT22;42965;52.846;6.614;2023-01-08T02:38:41;8.70;99.90
57088;DHT22;42965;52.846;6.614;2023-01-08T02:41:13;8.70;99.90
57088;DHT22;42965;52.846;6.614;2023-01-08T02:43:46;8.80;99.90
57088;DHT22;42965;52.846;6.614;2023-01-08T02:46:21;8.70;99.90
57088;DHT22;42965;52.846;6.614;2023-01-08T02:48:53;8.70;99.90
57088;DHT22;42965;52.846;6.614;2023-01-08T02:51:33;8.60;99.90
57088;DHT22;42965;52.846;6.614;2023-01-08T02:54:04;8.60;99.90
57088;DHT22;42965;52.846;6.614;2023-01-08T02:56:37;8.50;99.90
57088;DHT22;42965;52.846;6.614;2023-01-08T02:59:07;8.60;99.90
57088;DHT22;42965;52.846;6.614;2023-01-08T03:01:35;8.50;99.90
57088;DHT22;42965;52.846;6.614;2023-01-08T03:04:18;8.50;99.90
57088;DHT22;42965;52.846;6.614;2023-01-08T03:06:45;8.50;99.90
57088;DHT22;42965;52.846;6.614;2023-01-08T03:09:13;8.40;99.90
57088;DHT22;42965;52.846;6.614;2023-01-08T03:12:04;8.40;99.90
57088;DHT22;42965;52.846;6.614;2023-01-08T03:14:46;8.40;99.90
57088;DHT22;42965;52.846;6.614;2023-01-08T03:17:33;8.40;99.90
57088;DHT22;42965;52.846;6.614;2023-01-08T03:20:07;8.40;99.90
57088;DHT22;42965;52.846;6.614;2023-01-08T03:22:39;8.40;99.90
57088;DHT22;42965;52.846;6.614;2023-01-08T03:25:07;8.40;99.90
57088;DHT22;42965;52.846;6.614;2023-01-08T03:27:42;8.40;99.90
57088;DHT22;42965;52.846;6.614;2023-01-08T03:30:13;8.40;99.90
57088;DHT22;42965;52.846;6.614;2023-01-08T03:32:41;8.50;99.90
57088;DHT22;42965;52.846;6.614;2023-01-08T03:35:12;8.40;99.90
57088;DHT22;42965;52.846;6.614;2023-01-08T03:37:44;8.50;99.90
57088;DHT22;42965;52.846;6.614;2023-01-08T03:40:25;8.50;99.90
57088;DHT22;42965;52.846;6.614;2023-01-08T03:42:54;8.50;99.90
57088;DHT22;42965;52.846;6.614;2023-01-08T03:45:22;8.60;99.90
57088;DHT22;42965;52.846;6.614;2023-01-08T03:47:49;8.70;99.90
57088;DHT22;42965;52.846;6.614;2023-01-08T03:50:21;8.80;99.90
57088;DHT22;42965;52.846;6.614;2023-01-08T03:52:49;8.90;99.90
57088;DHT22;42965;52.846;6.614;2023-01-08T03:55:15;8.90;99.90
57088;DHT22;42965;52.846;6.614;2023-01-08T03:57:41;9.00;99.90
57088;DHT22;42965;52.846;6.614;2023-01-08T04:00:08;9.10;99.90
57088;DHT22;42965;52.846;6.614;2023-01-08T04:02:35;9.10;99.90
57088;DHT22;42965;52.846;6.614;2023-01-08T04:05:01;9.10;99.90
57088;DHT22;42965;52.846;6.614;2023-01-08T04:07:28;9.20;99.90
57088;DHT22;42965;52.846;6.614;2023-01-08T04:09:54;9.20;99.90
57088;DHT22;42965;52.846;6.614;2023-01-08T04:12:21;9.20;99.90
57088;DHT22;42965;52.846;6.614;2023-01-08T04:14:49;9.20;99.90
57088;DHT22;42965;52.846;6.614;2023-01-08T04:17:15;9.20;99.90
57088;DHT22;42965;52.846;6.614;2023-01-08T04:19:42;9.20;99.90
57088;DHT22;42965;52.846;6.614;2023-01-08T04:22:11;9.10;99.90
57088;DHT22;42965;52.846;6.614;2023-01-08T04:24:38;9.20;99.90
57088;DHT22;42965;52.846;6.614;2023-01-08T04:27:05;9.10;99.90
57088;DHT22;42965;52.846;6.614;2023-01-08T04:29:31;9.10;99.90
57088;DHT22;42965;52.846;6.614;2023-01-08T04:31:59;9.10;99.90
57088;DHT22;42965;52.846;6.614;2023-01-08T04:34:26;9.10;99.90
57088;DHT22;42965;52.846;6.614;2023-01-08T04:36:53;9.10;99.90
57088;DHT22;42965;52.846;6.614;2023-01-08T04:39:19;9.00;99.90
57088;DHT22;42965;52.846;6.614;2023-01-08T04:41:46;9.00;99.90
57088;DHT22;42965;52.846;6.614;2023-01-08T04:44:12;9.00;99.90
57088;DHT22;42965;52.846;6.614;2023-01-08T04:46:38;8.90;99.90
57088;DHT22;42965;52.846;6.614;2023-01-08T04:49:04;8.90;99.90
57088;DHT22;42965;52.846;6.614;2023-01-08T04:51:31;8.80;99.90
57088;DHT22;42965;52.846;6.614;2023-01-08T04:53:57;8.90;99.90
57088;DHT22;42965;52.846;6.614;2023-01-08T04:56:24;8.80;99.90
57088;DHT22;42965;52.846;6.614;2023-01-08T04:58:52;8.80;99.90
57088;DHT22;42965;52.846;6.614;2023-01-08T05:01:21;8.80;99.90
57088;DHT22;42965;52.846;6.614;2023-01-08T05:03:51;8.80;99.90
57088;DHT22;42965;52.846;6.614;2023-01-08T05:06:17;8.80;99.90
57088;DHT22;42965;52.846;6.614;2023-01-08T05:08:43;8.80;99.90
57088;DHT22;42965;52.846;6.614;2023-01-08T05:11:10;8.80;99.90
57088;DHT22;42965;52.846;6.614;2023-01-08T05:13:36;8.80;99.90
57088;DHT22;42965;52.846;6.614;2023-01-08T05:16:03;8.80;99.90
57088;DHT22;42965;52.846;6.614;2023-01-08T05:18:29;8.80;99.90
57088;DHT22;42965;52.846;6.614;2023-01-08T05:21:03;8.80;99.90
57088;DHT22;42965;52.846;6.614;2023-01-08T05:23:32;8.80;99.90
57088;DHT22;42965;52.846;6.614;2023-01-08T05:26:00;8.70;99.90
57088;DHT22;42965;52.846;6.614;2023-01-08T05:28:28;8.70;99.90
57088;DHT22;42965;52.846;6.614;2023-01-08T05:30:55;8.60;99.90
57088;DHT22;42965;52.846;6.614;2023-01-08T05:33:22;8.70;99.90
57088;DHT22;42965;52.846;6.614;2023-01-08T05:35:48;8.60;99.90
57088;DHT22;42965;52.846;6.614;2023-01-08T05:38:16;8.60;99.90
57088;DHT22;42965;52.846;6.614;2023-01-08T05:40:42;8.60;99.90
57088;DHT22;42965;52.846;6.614;2023-01-08T05:43:09;8.50;99.90
57088;DHT22;42965;52.846;6.614;2023-01-08T05:45:36;8.50;99.90
57088;DHT22;42965;52.846;6.614;2023-01-08T05:48:06;8.50;99.90
57088;DHT22;42965;52.846;6.614;2023-01-08T05:50:33;8.50;99.90
57088;DHT22;42965;52.846;6.614;2023-01-08T05:53:00;8.60;99.90
57088;DHT22;42965;52.846;6.614;2023-01-08T05:55:26;8.60;99.90
57088;DHT22;42965;52.846;6.614;2023-01-08T05:57:53;8.50;99.90
57088;DHT22;42965;52.846;6.614;2023-01-08T06:00:24;8.60;99.90
57088;DHT22;42965;52.846;6.614;2023-01-08T06:02:51;8.60;99.90
57088;DHT22;42965;52.846;6.614;2023-01-08T06:05:18;8.60;99.90
57088;DHT22;42965;52.846;6.614;2023-01-08T06:07:45;8.60;99.90
57088;DHT22;42965;52.846;6.614;2023-01-08T06:10:12;8.50;99.90
57088;DHT22;42965;52.846;6.614;2023-01-08T06:12:38;8.50;99.90
57088;DHT22;42965;52.846;6.614;2023-01-08T06:15:05;8.50;99.90
57088;DHT22;42965;52.846;6.614;2023-01-08T06:17:38;8.40;99.90
57088;DHT22;42965;52.846;6.614;2023-01-08T06:20:05;8.50;99.90
57088;DHT22;42965;52.846;6.614;2023-01-08T06:22:32;8.50;99.90
57088;DHT22;42965;52.846;6.614;2023-01-08T06:24:59;8.50;99.90
57088;DHT22;42965;52.846;6.614;2023-01-08T06:27:25;8.50;99.90
57088;DHT22;42965;52.846;6.614;2023-01-08T06:29:52;8.50;99.90
57088;DHT22;42965;52.846;6.614;2023-01-08T06:32:18;8.40;99.90
57088;DHT22;42965;52.846;6.614;2023-01-08T06:34:46;8.40;99.90
57088;DHT22;42965;52.846;6.614;2023-01-08T06:37:13;8.30;99.90
57088;DHT22;42965;52.846;6.614;2023-01-08T06:39:42;8.40;99.90
57088;DHT22;42965;52.846;6.614;2023-01-08T06:42:08;8.30;99.90
57088;DHT22;42965;52.846;6.614;2023-01-08T06:44:35;8.30;99.90
57088;DHT22;42965;52.846;6.614;2023-01-08T06:47:01;8.30;99.90
57088;DHT22;42965;52.846;6.614;2023-01-08T06:49:27;8.30;99.90
57088;DHT22;42965;52.846;6.614;2023-01-08T06:51:53;8.30;99.90
57088;DHT22;42965;52.846;6.614;2023-01-08T06:54:20;8.30;99.90
57088;DHT22;42965;52.846;6.614;2023-01-08T06:56:47;8.30;99.90
57088;DHT22;42965;52.846;6.614;2023-01-08T06:59:15;8.30;99.90
57088;DHT22;42965;52.846;6.614;2023-01-08T07:01:41;8.30;99.90
57088;DHT22;42965;52.846;6.614;2023-01-08T07:04:08;8.20;99.90
57088;DHT22;42965;52.846;6.614;2023-01-08T07:06:36;8.30;99.90
57088;DHT22;42965;52.846;6.614;2023-01-08T07:09:11;8.30;99.90
57088;DHT22;42965;52.846;6.614;2023-01-08T07:11:38;8.30;99.90
57088;DHT22;42965;52.846;6.614;2023-01-08T07:14:05;8.20;99.90
57088;DHT22;42965;52.846;6.614;2023-01-08T07:16:31;8.20;99.90
57088;DHT22;42965;52.846;6.614;2023-01-08T07:18:57;8.20;99.90
57088;DHT22;42965;52.846;6.614;2023-01-08T07:21:24;8.10;99.90
57088;DHT22;42965;52.846;6.614;2023-01-08T07:23:50;8.10;99.90
57088;DHT22;42965;52.846;6.614;2023-01-08T07:26:17;8.10;99.90
57088;DHT22;42965;52.846;6.614;2023-01-08T07:28:48;8.20;99.90
57088;DHT22;42965;52.846;6.614;2023-01-08T07:31:14;8.20;99.90
57088;DHT22;42965;52.846;6.614;2023-01-08T07:33:42;8.20;99.90
57088;DHT22;42965;52.846;6.614;2023-01-08T07:36:12;8.20;99.90
57088;DHT22;42965;52.846;6.614;2023-01-08T07:38:38;8.20;99.90
57088;DHT22;42965;52.846;6.614;2023-01-08T07:41:04;8.20;99.90
57088;DHT22;42965;52.846;6.614;2023-01-08T07:43:30;8.20;99.90
57088;DHT22;42965;52.846;6.614;2023-01-08T07:45:57;8.10;99.90
57088;DHT22;42965;52.846;6.614;2023-01-08T07:48:26;8.10;99.90
57088;DHT22;42965;52.846;6.614;2023-01-08T07:51:00;8.00;99.90
57088;DHT22;42965;52.846;6.614;2023-01-08T07:53:27;8.00;99.90
57088;DHT22;42965;52.846;6.614;2023-01-08T07:56:09;8.00;99.90
57088;DHT22;42965;52.846;6.614;2023-01-08T07:58:36;7.90;99.90
57088;DHT22;42965;52.846;6.614;2023-01-08T08:01:08;7.90;99.90
57088;DHT22;42965;52.846;6.614;2023-01-08T08:03:36;7.80;99.90
57088;DHT22;42965;52.846;6.614;2023-01-08T08:06:08;7.80;99.90
57088;DHT22;42965;52.846;6.614;2023-01-08T08:08:35;7.80;99.90
57088;DHT22;42965;52.846;6.614;2023-01-08T08:11:01;7.70;99.90
57088;DHT22;42965;52.846;6.614;2023-01-08T08:13:28;7.60;99.90
57088;DHT22;42965;52.846;6.614;2023-01-08T08:15:54;7.60;99.90
57088;DHT22;42965;52.846;6.614;2023-01-08T08:18:21;7.60;99.90
57088;DHT22;42965;52.846;6.614;2023-01-08T08:20:47;7.50;99.90
57088;DHT22;42965;52.846;6.614;2023-01-08T08:23:17;7.50;99.90
57088;DHT22;42965;52.846;6.614;2023-01-08T08:25:43;7.40;99.90
57088;DHT22;42965;52.846;6.614;2023-01-08T08:28:11;7.40;99.90
57088;DHT22;42965;52.846;6.614;2023-01-08T08:30:38;7.50;99.90
57088;DHT22;42965;52.846;6.614;2023-01-08T08:33:06;7.70;99.90
57088;DHT22;42965;52.846;6.614;2023-01-08T08:35:33;7.70;99.90
57088;DHT22;42965;52.846;6.614;2023-01-08T08:38:00;7.90;99.90
57088;DHT22;42965;52.846;6.614;2023-01-08T08:40:28;8.10;99.90
57088;DHT22;42965;52.846;6.614;2023-01-08T08:43:00;8.20;99.90
57088;DHT22;42965;52.846;6.614;2023-01-08T08:45:27;8.30;99.90
57088;DHT22;42965;52.846;6.614;2023-01-08T08:47:57;8.30;99.90
57088;DHT22;42965;52.846;6.614;2023-01-08T08:50:23;8.40;99.90
57088;DHT22;42965;52.846;6.614;2023-01-08T08:52:50;8.40;99.90
57088;DHT22;42965;52.846;6.614;2023-01-08T08:55:16;8.60;99.90
57088;DHT22;42965;52.846;6.614;2023-01-08T08:57:46;8.70;99.90
57088;DHT22;42965;52.846;6.614;2023-01-08T09:00:13;8.90;99.90
57088;DHT22;42965;52.846;6.614;2023-01-08T09:02:41;9.10;99.90
57088;DHT22;42965;52.846;6.614;2023-01-08T09:05:08;9.60;99.90
57088;DHT22;42965;52.846;6.614;2023-01-08T09:07:35;9.80;99.90
57088;DHT22;42965;52.846;6.614;2023-01-08T09:10:03;9.90;99.90
57088;DHT22;42965;52.846;6.614;2023-01-08T09:12:29;10.00;99.90
57088;DHT22;42965;52.846;6.614;2023-01-08T09:14:56;10.00;99.90
57088;DHT22;42965;52.846;6.614;2023-01-08T09:17:22;10.10;99.90
57088;DHT22;42965;52.846;6.614;2023-01-08T09:19:50;10.10;99.90
57088;DHT22;42965;52.846;6.614;2023-01-08T09:22:17;10.10;99.90
57088;DHT22;42965;52.846;6.614;2023-01-08T09:24:43;10.10;99.90
57088;DHT22;42965;52.846;6.614;2023-01-08T09:27:10;10.20;99.90
57088;DHT22;42965;52.846;6.614;2023-01-08T09:29:39;10.00;99.90
57088;DHT22;42965;52.846;6.614;2023-01-08T09:32:06;10.00;99.90
57088;DHT22;42965;52.846;6.614;2023-01-08T09:34:33;9.70;99.90
57088;DHT22;42965;52.846;6.614;2023-01-08T09:37:01;9.60;99.90
57088;DHT22;42965;52.846;6.614;2023-01-08T09:39:28;9.60;99.90
57088;DHT22;42965;52.846;6.614;2023-01-08T09:41:56;9.60;99.90
57088;DHT22;42965;52.846;6.614;2023-01-08T09:44:27;9.70;99.90
57088;DHT22;42965;52.846;6.614;2023-01-08T09:46:55;9.60;99.90
57088;DHT22;42965;52.846;6.614;2023-01-08T09:49:29;9.80;99.90
57088;DHT22;42965;52.846;6.614;2023-01-08T09:51:59;9.80;99.90
57088;DHT22;42965;52.846;6.614;2023-01-08T09:54:25;9.80;99.90
57088;DHT22;42965;52.846;6.614;2023-01-08T09:56:52;9.60;99.90
57088;DHT22;42965;52.846;6.614;2023-01-08T09:59:19;9.60;99.90
57088;DHT22;42965;52.846;6.614;2023-01-08T10:01:54;9.60;99.90
57088;DHT22;42965;52.846;6.614;2023-01-08T10:04:24;9.60;99.90
57088;DHT22;42965;52.846;6.614;2023-01-08T10:06:53;9.60;99.90
57088;DHT22;42965;52.846;6.614;2023-01-08T10:09:28;9.70;99.90
57088;DHT22;42965;52.846;6.614;2023-01-08T10:11:58;9.80;99.90
57088;DHT22;42965;52.846;6.614;2023-01-08T10:14:32;9.80;99.90
57088;DHT22;42965;52.846;6.614;2023-01-08T10:20:15;9.80;99.90
57088;DHT22;42965;52.846;6.614;2023-01-08T10:22:42;9.70;99.90
57088;DHT22;42965;52.846;6.614;2023-01-08T10:25:12;9.80;99.90
57088;DHT22;42965;52.846;6.614;2023-01-08T10:28:00;9.90;99.90
57088;DHT22;42965;52.846;6.614;2023-01-08T10:33:01;10.20;99.90
57088;DHT22;42965;52.846;6.614;2023-01-08T10:35:39;10.50;99.90
57088;DHT22;42965;52.846;6.614;2023-01-08T10:38:06;10.50;99.90
57088;DHT22;42965;52.846;6.614;2023-01-08T10:40:35;10.60;99.90
57088;DHT22;42965;52.846;6.614;2023-01-08T10:43:10;10.60;99.90
57088;DHT22;42965;52.846;6.614;2023-01-08T10:45:38;10.50;99.90
57088;DHT22;42965;52.846;6.614;2023-01-08T10:48:14;10.50;99.90
57088;DHT22;42965;52.846;6.614;2023-01-08T10:50:42;10.40;99.90
57088;DHT22;42965;52.846;6.614;2023-01-08T10:53:23;10.40;99.90
57088;DHT22;42965;52.846;6.614;2023-01-08T10:56:03;10.50;99.90
57088;DHT22;42965;52.846;6.614;2023-01-08T10:58:40;10.40;99.90
57088;DHT22;42965;52.846;6.614;2023-01-08T11:01:17;10.50;99.90
57088;DHT22;42965;52.846;6.614;2023-01-08T11:03:56;10.90;99.90
57088;DHT22;42965;52.846;6.614;2023-01-08T11:06:29;11.50;99.90
57088;DHT22;42965;52.846;6.614;2023-01-08T11:09:01;11.90;99.90
57088;DHT22;42965;52.846;6.614;2023-01-08T11:11:37;12.30;99.90
57088;DHT22;42965;52.846;6.614;2023-01-08T11:14:05;12.50;99.90
57088;DHT22;42965;52.846;6.614;2023-01-08T11:16:39;11.90;99.90
57088;DHT22;42965;52.846;6.614;2023-01-08T11:19:19;11.80;99.90
57088;DHT22;42965;52.846;6.614;2023-01-08T11:21:59;12.00;99.90
57088;DHT22;42965;52.846;6.614;2023-01-08T11:24:36;11.70;99.90
57088;DHT22;42965;52.846;6.614;2023-01-08T11:37:49;11.60;99.90
57088;DHT22;42965;52.846;6.614;2023-01-08T11:43:11;10.90;99.90
57088;DHT22;42965;52.846;6.614;2023-01-08T11:48:45;11.00;99.90
57088;DHT22;42965;52.846;6.614;2023-01-08T12:02:53;12.40;99.90
57088;DHT22;42965;52.846;6.614;2023-01-08T12:05:42;12.40;99.90
57088;DHT22;42965;52.846;6.614;2023-01-08T12:08:44;12.80;99.90
57088;DHT22;42965;52.846;6.614;2023-01-08T12:11:52;12.90;99.90
57088;DHT22;42965;52.846;6.614;2023-01-08T12:15:00;12.40;99.90
57088;DHT22;42965;52.846;6.614;2023-01-08T12:23:52;11.70;99.90
57088;DHT22;42965;52.846;6.614;2023-01-08T12:37:01;13.20;99.90
57088;DHT22;42965;52.846;6.614;2023-01-08T12:39:36;12.70;99.90
57088;DHT22;42965;52.846;6.614;2023-01-08T12:42:12;12.10;99.90
57088;DHT22;42965;52.846;6.614;2023-01-08T12:44:40;12.50;99.90
57088;DHT22;42965;52.846;6.614;2023-01-08T12:47:20;12.90;99.90
57088;DHT22;42965;52.846;6.614;2023-01-08T12:49:55;13.10;99.90
57088;DHT22;42965;52.846;6.614;2023-01-08T12:52:36;12.90;99.90
57088;DHT22;42965;52.846;6.614;2023-01-08T12:55:32;12.50;99.90
57088;DHT22;42965;52.846;6.614;2023-01-08T13:01:10;12.60;99.90
57088;DHT22;42965;52.846;6.614;2023-01-08T13:03:44;12.80;99.90
57088;DHT22;42965;52.846;6.614;2023-01-08T13:06:14;12.60;99.90
57088;DHT22;42965;52.846;6.614;2023-01-08T13:08:55;12.10;99.90
57088;DHT22;42965;52.846;6.614;2023-01-08T13:11:40;12.40;99.90
57088;DHT22;42965;52.846;6.614;2023-01-08T13:14:27;12.90;99.90
57088;DHT22;42965;52.846;6.614;2023-01-08T13:17:25;12.80;99.90
57088;DHT22;42965;52.846;6.614;2023-01-08T13:20:20;13.00;99.90
57088;DHT22;42965;52.846;6.614;2023-01-08T13:23:17;12.40;99.90
57088;DHT22;42965;52.846;6.614;2023-01-08T13:26:06;11.90;99.90
57088;DHT22;42965;52.846;6.614;2023-01-08T13:33:45;11.60;99.90
57088;DHT22;42965;52.846;6.614;2023-01-08T13:36:25;12.20;99.90
57088;DHT22;42965;52.846;6.614;2023-01-08T13:41:41;14.00;99.90
57088;DHT22;42965;52.846;6.614;2023-01-08T13:44:37;14.10;99.90
57088;DHT22;42965;52.846;6.614;2023-01-08T13:47:35;13.30;99.90
57088;DHT22;42965;52.846;6.614;2023-01-08T13:50:27;12.70;99.90
57088;DHT22;42965;52.846;6.614;2023-01-08T13:53:15;12.40;99.90
57088;DHT22;42965;52.846;6.614;2023-01-08T13:56:06;12.80;99.90
57088;DHT22;42965;52.846;6.614;2023-01-08T13:58:53;13.20;99.90
57088;DHT22;42965;52.846;6.614;2023-01-08T14:01:53;13.50;99.90
57088;DHT22;42965;52.846;6.614;2023-01-08T14:04:21;13.30;99.90
57088;DHT22;42965;52.846;6.614;2023-01-08T14:06:49;12.70;99.90
57088;DHT22;42965;52.846;6.614;2023-01-08T14:09:23;12.20;99.90
57088;DHT22;42965;52.846;6.614;2023-01-08T14:11:54;11.70;99.90
57088;DHT22;42965;52.846;6.614;2023-01-08T14:14:26;11.40;99.90
57088;DHT22;42965;52.846;6.614;2023-01-08T14:16:52;11.70;99.90
57088;DHT22;42965;52.846;6.614;2023-01-08T14:19:24;12.00;99.90
57088;DHT22;42965;52.846;6.614;2023-01-08T14:21:57;11.60;99.90
57088;DHT22;42965;52.846;6.614;2023-01-08T14:24:25;11.10;99.90
57088;DHT22;42965;52.846;6.614;2023-01-08T14:26:58;11.20;99.90
57088;DHT22;42965;52.846;6.614;2023-01-08T14:29:27;11.50;99.90
57088;DHT22;42965;52.846;6.614;2023-01-08T14:31:56;12.20;99.90
57088;DHT22;42965;52.846;6.614;2023-01-08T14:34:29;12.70;99.90
57088;DHT22;42965;52.846;6.614;2023-01-08T14:36:59;12.90;99.90
57088;DHT22;42965;52.846;6.614;2023-01-08T14:39:34;12.70;99.90
57088;DHT22;42965;52.846;6.614;2023-01-08T14:42:14;13.10;99.90
57088;DHT22;42965;52.846;6.614;2023-01-08T14:47:41;12.60;99.90
57088;DHT22;42965;52.846;6.614;2023-01-08T14:50:37;12.00;99.90
57088;DHT22;42965;52.846;6.614;2023-01-08T14:53:24;11.30;99.90
57088;DHT22;42965;52.846;6.614;2023-01-08T14:55:55;10.90;99.90
57088;DHT22;42965;52.846;6.614;2023-01-08T14:58:23;10.60;99.90
57088;DHT22;42965;52.846;6.614;2023-01-08T15:00:56;10.30;99.90
57088;DHT22;42965;52.846;6.614;2023-01-08T15:05:55;10.00;99.90
57088;DHT22;42965;52.846;6.614;2023-01-08T15:08:25;9.80;99.90
57088;DHT22;42965;52.846;6.614;2023-01-08T15:13:46;9.60;99.90
57088;DHT22;42965;52.846;6.614;2023-01-08T15:19:18;9.40;99.90
57088;DHT22;42965;52.846;6.614;2023-01-08T15:21:55;9.30;99.90
57088;DHT22;42965;52.846;6.614;2023-01-08T15:24:28;9.20;99.90
57088;DHT22;42965;52.846;6.614;2023-01-08T15:26:56;9.20;99.90
57088;DHT22;42965;52.846;6.614;2023-01-08T15:29:30;9.10;99.90
57088;DHT22;42965;52.846;6.614;2023-01-08T15:34:43;9.00;99.90
57088;DHT22;42965;52.846;6.614;2023-01-08T15:37:12;8.90;99.90
57088;DHT22;42965;52.846;6.614;2023-01-08T15:39:41;8.90;99.90
57088;DHT22;42965;52.846;6.614;2023-01-08T15:42:27;8.80;99.90
57088;DHT22;42965;52.846;6.614;2023-01-08T15:45:18;8.70;99.90
57088;DHT22;42965;52.846;6.614;2023-01-08T15:47:45;8.60;99.90
57088;DHT22;42965;52.846;6.614;2023-01-08T15:50:12;8.60;99.90
57088;DHT22;42965;52.846;6.614;2023-01-08T15:52:42;8.50;99.90
57088;DHT22;42965;52.846;6.614;2023-01-08T15:55:17;8.40;99.90
57088;DHT22;42965;52.846;6.614;2023-01-08T15:57:53;8.40;99.90
57088;DHT22;42965;52.846;6.614;2023-01-08T16:00:22;8.40;99.90
57088;DHT22;42965;52.846;6.614;2023-01-08T16:02:51;8.30;99.90
57088;DHT22;42965;52.846;6.614;2023-01-08T16:05:19;8.20;99.90
57088;DHT22;42965;52.846;6.614;2023-01-08T16:07:46;8.20;99.90
57088;DHT22;42965;52.846;6.614;2023-01-08T16:10:32;8.20;99.90
57088;DHT22;42965;52.846;6.614;2023-01-08T16:13:19;8.10;99.90
57088;DHT22;42965;52.846;6.614;2023-01-08T16:16:16;8.10;99.90
57088;DHT22;42965;52.846;6.614;2023-01-08T16:18:42;8.00;99.90
57088;DHT22;42965;52.846;6.614;2023-01-08T16:21:09;8.10;99.90
57088;DHT22;42965;52.846;6.614;2023-01-08T16:23:43;8.10;99.90
57088;DHT22;42965;52.846;6.614;2023-01-08T16:26:11;8.10;99.90
57088;DHT22;42965;52.846;6.614;2023-01-08T16:28:39;8.10;99.90
57088;DHT22;42965;52.846;6.614;2023-01-08T16:31:06;8.10;99.90
57088;DHT22;42965;52.846;6.614;2023-01-08T16:33:32;8.10;99.90
57088;DHT22;42965;52.846;6.614;2023-01-08T16:36:01;8.00;99.90
57088;DHT22;42965;52.846;6.614;2023-01-08T16:38:29;7.90;99.90
57088;DHT22;42965;52.846;6.614;2023-01-08T16:40:55;7.90;99.90
57088;DHT22;42965;52.846;6.614;2023-01-08T16:43:23;7.80;99.90
57088;DHT22;42965;52.846;6.614;2023-01-08T16:45:49;7.80;99.90
57088;DHT22;42965;52.846;6.614;2023-01-08T16:48:20;7.80;99.90
57088;DHT22;42965;52.846;6.614;2023-01-08T16:50:47;7.70;99.90
57088;DHT22;42965;52.846;6.614;2023-01-08T16:53:15;7.70;99.90
57088;DHT22;42965;52.846;6.614;2023-01-08T16:55:46;7.70;99.90
57088;DHT22;42965;52.846;6.614;2023-01-08T16:58:12;7.60;99.90
57088;DHT22;42965;52.846;6.614;2023-01-08T17:00:39;7.60;99.90
57088;DHT22;42965;52.846;6.614;2023-01-08T17:03:05;7.50;99.90
57088;DHT22;42965;52.846;6.614;2023-01-08T17:05:34;7.50;99.90
57088;DHT22;42965;52.846;6.614;2023-01-08T17:08:01;7.50;99.90
57088;DHT22;42965;52.846;6.614;2023-01-08T17:10:27;7.50;99.90
57088;DHT22;42965;52.846;6.614;2023-01-08T17:12:53;7.40;99.90
57088;DHT22;42965;52.846;6.614;2023-01-08T17:15:19;7.40;99.90
57088;DHT22;42965;52.846;6.614;2023-01-08T17:17:46;7.40;99.90
57088;DHT22;42965;52.846;6.614;2023-01-08T17:20:12;7.30;99.90
57088;DHT22;42965;52.846;6.614;2023-01-08T17:22:38;7.30;99.90
57088;DHT22;42965;52.846;6.614;2023-01-08T17:25:05;7.30;99.90
57088;DHT22;42965;52.846;6.614;2023-01-08T17:27:34;7.30;99.90
57088;DHT22;42965;52.846;6.614;2023-01-08T17:30:02;7.20;99.90
57088;DHT22;42965;52.846;6.614;2023-01-08T17:32:34;7.20;99.90
57088;DHT22;42965;52.846;6.614;2023-01-08T17:35:00;7.10;99.90
57088;DHT22;42965;52.846;6.614;2023-01-08T17:37:29;7.10;99.90